createdAt,value
2023-06-04T00:00:01.182Z,101231.88
2023-06-04T00:02:28.404Z,101236.25
2023-06-04T00:04:55.712Z,101222.81
2023-06-04T00:07:23.008Z,101219.94
2023-06-04T00:09:50.241Z,101230.19
2023-06-04T00:12:17.910Z,101226.97
2023-06-04T00:14:45.167Z,101216.28
2023-06-04T00:17:12.529Z,101222.59
2023-06-04T00:19:41.334Z,101215.13
2023-06-04T00:22:08.949Z,101220.97
2023-06-04T00:24:39.127Z,101203.97
2023-06-04T00:27:07.992Z,101210.19
2023-06-04T00:29:35.019Z,101205.72
2023-06-04T00:32:02.719Z,101199.38
2023-06-04T00:34:30.011Z,101206.53
2023-06-04T00:36:57.180Z,101198.47
2023-06-04T00:39:24.328Z,101203.66
2023-06-04T00:41:51.423Z,101198.59
2023-06-04T00:44:18.854Z,101193.31
2023-06-04T00:46:46.727Z,101190.09
2023-06-04T00:49:14.062Z,101188.50
2023-06-04T00:51:41.642Z,101193.22
2023-06-04T00:54:10.439Z,101186.88
2023-06-04T00:56:38.540Z,101195.97
2023-06-04T00:59:12.574Z,101190.78
2023-06-04T01:01:55.190Z,101193.09
2023-06-04T01:04:46.988Z,101204.13
2023-06-04T01:07:16.888Z,101198.97
2023-06-04T01:09:46.236Z,101191.38
2023-06-04T01:12:13.670Z,101198.84
2023-06-04T01:14:41.805Z,101200.34
2023-06-04T01:17:11.719Z,101199.56
2023-06-04T01:20:12.989Z,101185.28
2023-06-04T01:22:42.932Z,101196.78
2023-06-04T01:25:35.001Z,101199.09
2023-06-04T01:28:04.492Z,101201.41
2023-06-04T01:30:37.699Z,101191.50
2023-06-04T01:33:05.124Z,101190.25
2023-06-04T01:35:32.586Z,101200.03
2023-06-04T01:37:59.990Z,101195.19
2023-06-04T01:40:27.695Z,101191.19
2023-06-04T01:42:56.002Z,101195.41
2023-06-04T01:45:24.074Z,101197.84
2023-06-04T01:47:51.307Z,101206.56
2023-06-04T01:50:18.522Z,101210.94
2023-06-04T01:52:45.847Z,101209.00
2023-06-04T01:55:16.929Z,101213.03
2023-06-04T01:57:45.628Z,101213.34
2023-06-04T02:00:13.849Z,101206.91
2023-06-04T02:02:43.033Z,101212.06
2023-06-04T02:05:11.512Z,101209.91
2023-06-04T02:07:46.114Z,101209.78
2023-06-04T02:10:15.652Z,101216.00
2023-06-04T02:12:55.240Z,101205.31
2023-06-04T02:15:24.892Z,101210.03
2023-06-04T02:17:52.724Z,101215.56
2023-06-04T02:20:19.956Z,101208.09
2023-06-04T02:22:47.163Z,101212.09
2023-06-04T02:25:14.229Z,101210.47
2023-06-04T02:27:41.419Z,101218.84
2023-06-04T02:30:09.289Z,101215.88
2023-06-04T02:32:37.382Z,101203.47
2023-06-04T02:35:05.511Z,101208.50
2023-06-04T02:37:32.823Z,101205.31
2023-06-04T02:39:59.876Z,101209.19
2023-06-04T02:42:27.066Z,101205.31
2023-06-04T02:44:54.173Z,101203.47
2023-06-04T02:47:21.513Z,101214.69
2023-06-04T02:49:48.565Z,101212.88
2023-06-04T02:52:15.747Z,101210.09
2023-06-04T02:54:42.818Z,101217.31
2023-06-04T02:57:09.971Z,101212.91
2023-06-04T02:59:37.729Z,101217.69
2023-06-04T03:02:05.764Z,101216.50
2023-06-04T03:04:35.657Z,101212.53
2023-06-04T03:07:04.158Z,101220.19
2023-06-04T03:09:35.134Z,101216.19
2023-06-04T03:12:03.157Z,101220.41
2023-06-04T03:14:34.560Z,101218.94
2023-06-04T03:17:08.676Z,101215.03
2023-06-04T03:19:41.530Z,101217.31
2023-06-04T03:22:10.192Z,101211.00
2023-06-04T03:24:41.151Z,101224.28
2023-06-04T03:27:10.222Z,101221.91
2023-06-04T03:29:38.821Z,101221.09
2023-06-04T03:32:08.189Z,101221.22
2023-06-04T03:34:36.079Z,101218.94
2023-06-04T03:37:04.176Z,101217.44
2023-06-04T03:39:32.864Z,101218.25
2023-06-04T03:42:02.372Z,101218.94
2023-06-04T03:44:30.643Z,101219.63
2023-06-04T03:46:58.092Z,101219.63
2023-06-04T03:49:25.465Z,101217.31
2023-06-04T03:51:52.774Z,101218.59
2023-06-04T03:54:22.442Z,101206.09
2023-06-04T03:56:51.189Z,101219.88
2023-06-04T03:59:18.382Z,101218.03
2023-06-04T04:01:47.029Z,101217.06
2023-06-04T04:04:14.296Z,101210.31
2023-06-04T04:06:42.617Z,101214.16
2023-06-04T04:09:10.528Z,101216.09
2023-06-04T04:11:38.097Z,101225.63
2023-06-04T04:14:05.779Z,101219.44
2023-06-04T04:16:34.077Z,101229.75
2023-06-04T04:19:01.330Z,101233.44
2023-06-04T04:21:28.541Z,101236.00
2023-06-04T04:23:55.934Z,101244.97
2023-06-04T04:26:25.054Z,101239.25
2023-06-04T04:28:59.334Z,101236.03
2023-06-04T04:31:29.390Z,101236.06
2023-06-04T04:33:57.528Z,101237.81
2023-06-04T04:36:25.166Z,101239.63
2023-06-04T04:38:56.026Z,101237.47
2023-06-04T04:41:30.310Z,101238.63
2023-06-04T04:44:05.276Z,101234.28
2023-06-04T04:46:33.313Z,101219.91
2023-06-04T04:49:00.425Z,101222.66
2023-06-04T04:51:27.885Z,101221.72
2023-06-04T04:53:56.152Z,101222.38
2023-06-04T04:56:24.958Z,101214.41
2023-06-04T04:58:52.977Z,101225.16
2023-06-04T05:01:21.467Z,101230.91
2023-06-04T05:03:49.735Z,101225.72
2023-06-04T05:06:17.754Z,101231.28
2023-06-04T05:08:45.436Z,101235.16
2023-06-04T05:11:14.313Z,101225.66
2023-06-04T05:13:43.007Z,101226.44
2023-06-04T05:16:12.860Z,101230.50
2023-06-04T05:18:42.948Z,101228.22
2023-06-04T05:21:13.415Z,101226.63
2023-06-04T05:23:49.856Z,101234.88
2023-06-04T05:26:24.200Z,101243.53
2023-06-04T05:28:52.823Z,101239.31
2023-06-04T05:31:20.086Z,101246.75
2023-06-04T05:33:49.212Z,101240.03
2023-06-04T05:36:21.077Z,101249.06
2023-06-04T05:38:58.696Z,101256.09
2023-06-04T05:41:32.072Z,101254.03
2023-06-04T05:44:01.816Z,101256.81
2023-06-04T05:46:29.976Z,101264.66
2023-06-04T05:48:57.164Z,101276.72
2023-06-04T05:51:25.371Z,101285.50
2023-06-04T05:53:52.563Z,101284.56
2023-06-04T05:56:20.193Z,101280.13
2023-06-04T05:58:53.562Z,101287.94
2023-06-04T06:01:23.024Z,101290.31
2023-06-04T06:03:52.109Z,101287.50
2023-06-04T06:06:22.280Z,101292.97
2023-06-04T06:08:50.875Z,101298.22
2023-06-04T06:11:19.065Z,101290.69
2023-06-04T06:13:46.501Z,101286.97
2023-06-04T06:16:14.632Z,101289.09
2023-06-04T06:18:41.971Z,101286.00
2023-06-04T06:21:09.426Z,101292.81
2023-06-04T06:23:37.381Z,101306.81
2023-06-04T06:26:09.332Z,101317.88
2023-06-04T06:28:44.699Z,101315.97
2023-06-04T06:31:12.719Z,101306.72
2023-06-04T06:33:42.493Z,101309.41
2023-06-04T06:36:13.480Z,101305.38
2023-06-04T06:38:41.483Z,101319.25
2023-06-04T06:41:09.692Z,101317.97
2023-06-04T06:43:37.166Z,101317.09
2023-06-04T06:46:04.237Z,101314.31
2023-06-04T06:48:31.387Z,101316.75
2023-06-04T06:50:58.440Z,101319.81
2023-06-04T06:53:25.601Z,101326.81
2023-06-04T06:55:52.648Z,101323.25
2023-06-04T06:58:19.753Z,101331.63
2023-06-04T07:00:47.085Z,101334.06
2023-06-04T07:03:14.262Z,101338.47
2023-06-04T07:05:41.474Z,101342.91
2023-06-04T07:08:08.674Z,101330.03
2023-06-04T07:10:35.829Z,101335.28
2023-06-04T07:13:02.942Z,101334.69
2023-06-04T07:15:30.108Z,101337.75
2023-06-04T07:17:57.208Z,101327.53
2023-06-04T07:20:24.542Z,101331.59
2023-06-04T07:22:51.872Z,101338.34
2023-06-04T07:25:19.057Z,101332.50
2023-06-04T07:27:46.308Z,101336.63
2023-06-04T07:30:13.766Z,101345.16
2023-06-04T07:32:41.005Z,101341.63
2023-06-04T07:35:08.739Z,101349.66
2023-06-04T07:37:36.091Z,101341.75
2023-06-04T07:40:05.059Z,101342.06
2023-06-04T07:42:32.321Z,101343.84
2023-06-04T07:44:59.896Z,101338.56
2023-06-04T07:47:27.183Z,101346.97
2023-06-04T07:50:02.350Z,101340.13
2023-06-04T07:52:30.853Z,101336.94
2023-06-04T07:54:57.969Z,101330.72
2023-06-04T07:57:26.162Z,101332.28
2023-06-04T07:59:53.349Z,101331.56
2023-06-04T08:02:20.605Z,101336.00
2023-06-04T08:04:48.730Z,101335.88
2023-06-04T08:07:16.160Z,101329.50
2023-06-04T08:09:45.201Z,101331.22
2023-06-04T08:12:12.595Z,101338.31
2023-06-04T08:14:40.140Z,101338.22
2023-06-04T08:17:07.287Z,101341.13
2023-06-04T08:19:34.366Z,101337.94
2023-06-04T08:22:01.596Z,101343.19
2023-06-04T08:24:28.838Z,101334.19
2023-06-04T08:26:56.086Z,101344.16
2023-06-04T08:29:23.956Z,101336.72
2023-06-04T08:31:51.287Z,101343.72
2023-06-04T08:34:18.373Z,101339.00
2023-06-04T08:36:45.468Z,101346.19
2023-06-04T08:39:12.620Z,101348.81
2023-06-04T08:41:46.031Z,101369.66
2023-06-04T08:44:13.742Z,101381.31
2023-06-04T08:46:41.867Z,101382.75
2023-06-04T08:49:09.762Z,101388.31
2023-06-04T08:51:38.764Z,101388.25
2023-06-04T08:54:10.037Z,101385.84
2023-06-04T08:56:39.513Z,101384.19
2023-06-04T08:59:08.774Z,101391.69
2023-06-04T09:01:39.727Z,101385.53
2023-06-04T09:04:11.845Z,101381.81
2023-06-04T09:06:42.639Z,101386.72
2023-06-04T09:09:11.493Z,101388.91
2023-06-04T09:11:54.943Z,101397.38
2023-06-04T09:14:22.618Z,101392.13
2023-06-04T09:16:55.530Z,101383.94
2023-06-04T09:19:23.722Z,101386.88
2023-06-04T09:21:53.352Z,101381.66
2023-06-04T09:24:22.164Z,101385.09
2023-06-04T09:26:50.184Z,101383.63
2023-06-04T09:29:18.247Z,101396.00
2023-06-04T09:31:59.757Z,101383.97
2023-06-04T09:34:30.942Z,101381.41
2023-06-04T09:36:59.796Z,101384.97
2023-06-04T09:39:28.300Z,101379.72
2023-06-04T09:42:03.211Z,101383.13
2023-06-04T09:44:31.564Z,101383.50
2023-06-04T09:46:59.869Z,101393.41
2023-06-04T09:49:27.226Z,101391.09
2023-06-04T09:51:54.361Z,101383.81
2023-06-04T09:54:21.622Z,101394.47
2023-06-04T09:56:48.700Z,101401.16
2023-06-04T09:59:16.274Z,101393.28
2023-06-04T10:01:44.461Z,101400.50
2023-06-04T10:04:14.642Z,101400.56
2023-06-04T10:06:43.283Z,101403.66
2023-06-04T10:09:12.308Z,101413.41
2023-06-04T10:11:44.009Z,101405.13
2023-06-04T10:14:26.504Z,101408.41
2023-06-04T10:16:54.353Z,101416.75
2023-06-04T10:19:24.824Z,101414.72
2023-06-04T10:21:52.221Z,101410.91
2023-06-04T10:24:21.248Z,101412.72
2023-06-04T10:26:49.625Z,101406.50
2023-06-04T10:29:18.966Z,101398.06
2023-06-04T10:31:46.580Z,101401.81
2023-06-04T10:34:14.843Z,101391.88
2023-06-04T10:36:46.925Z,101392.69
2023-06-04T10:39:14.941Z,101385.16
2023-06-04T10:41:42.355Z,101379.66
2023-06-04T10:44:09.647Z,101389.00
2023-06-04T10:46:44.044Z,101389.84
2023-06-04T10:49:13.484Z,101387.06
2023-06-04T10:51:40.799Z,101387.13
2023-06-04T10:54:08.391Z,101391.94
2023-06-04T10:56:36.675Z,101378.41
2023-06-04T10:59:15.959Z,101377.25
2023-06-04T11:01:43.551Z,101381.75
2023-06-04T11:04:25.056Z,101367.81
2023-06-04T11:07:12.234Z,101372.97
2023-06-04T11:09:49.719Z,101366.28
2023-06-04T11:12:17.012Z,101370.84
2023-06-04T11:15:04.429Z,101375.88
2023-06-04T11:17:32.187Z,101372.50
2023-06-04T11:20:01.414Z,101365.50
2023-06-04T11:22:29.697Z,101363.19
2023-06-04T11:25:00.505Z,101374.91
2023-06-04T11:27:36.322Z,101372.56
2023-06-04T11:30:06.431Z,101366.84
2023-06-04T11:32:33.624Z,101360.13
2023-06-04T11:35:12.195Z,101371.47
2023-06-04T11:37:40.242Z,101366.97
2023-06-04T11:40:20.480Z,101366.53
2023-06-04T11:42:48.883Z,101364.66
2023-06-04T11:45:20.491Z,101362.34
2023-06-04T11:47:56.939Z,101357.28
2023-06-04T11:50:27.926Z,101358.13
2023-06-04T11:52:55.351Z,101353.28
2023-06-04T11:55:23.176Z,101362.06
2023-06-04T11:57:51.964Z,101341.53
2023-06-04T12:00:21.315Z,101348.13
2023-06-04T12:02:56.848Z,101345.00
2023-06-04T12:05:29.972Z,101348.91
2023-06-04T12:08:10.745Z,101336.66
2023-06-04T12:10:42.211Z,101333.34
2023-06-04T12:13:11.282Z,101330.69
2023-06-04T12:15:38.521Z,101332.53
2023-06-04T12:18:06.376Z,101342.28
2023-06-04T12:20:38.113Z,101322.91
2023-06-04T12:23:07.188Z,101322.16
2023-06-04T12:25:38.941Z,101328.25
2023-06-04T12:28:06.805Z,101333.53
2023-06-04T12:30:41.243Z,101334.59
2023-06-04T12:33:08.909Z,101328.41
2023-06-04T12:35:37.065Z,101334.28
2023-06-04T12:38:06.606Z,101333.19
2023-06-04T12:40:34.224Z,101337.66
2023-06-04T12:43:01.576Z,101328.47
2023-06-04T12:45:28.810Z,101330.03
2023-06-04T12:47:56.062Z,101340.88
2023-06-04T12:50:23.369Z,101337.41
2023-06-04T12:52:51.085Z,101341.41
2023-06-04T12:55:18.428Z,101340.16
2023-06-04T12:57:45.978Z,101344.84
2023-06-04T13:00:13.550Z,101346.41
2023-06-04T13:02:40.736Z,101358.19
2023-06-04T13:05:08.653Z,101354.53
2023-06-04T13:07:35.845Z,101359.34
2023-06-04T13:10:02.984Z,101355.66
2023-06-04T13:12:30.212Z,101353.47
2023-06-04T13:14:57.339Z,101350.31
2023-06-04T13:17:24.621Z,101342.38
2023-06-04T13:19:53.082Z,101345.06
2023-06-04T13:22:20.169Z,101319.91
2023-06-04T13:24:47.306Z,101326.75
2023-06-04T13:27:14.355Z,101331.38
2023-06-04T13:29:43.754Z,101322.16
2023-06-04T13:32:12.234Z,101325.28
2023-06-04T13:34:39.410Z,101330.75
2023-06-04T13:37:07.281Z,101330.34
2023-06-04T13:39:34.388Z,101316.72
2023-06-04T13:42:01.538Z,101321.66
2023-06-04T13:44:30.076Z,101317.06
2023-06-04T13:47:00.253Z,101323.41
2023-06-04T13:49:27.432Z,101325.47
2023-06-04T13:51:54.467Z,101324.63
2023-06-04T13:54:21.713Z,101330.91
2023-06-04T13:56:49.742Z,101329.13
2023-06-04T13:59:17.213Z,101335.44
2023-06-04T14:01:44.651Z,101332.75
2023-06-04T14:04:12.755Z,101325.59
2023-06-04T14:06:40.115Z,101336.84
2023-06-04T14:09:08.119Z,101327.94
2023-06-04T14:11:35.402Z,101332.81
2023-06-04T14:14:02.742Z,101336.75
2023-06-04T14:16:30.015Z,101337.28
2023-06-04T14:18:57.158Z,101331.84
2023-06-04T14:21:24.334Z,101327.72
2023-06-04T14:23:51.776Z,101320.63
2023-06-04T14:26:19.185Z,101329.59
2023-06-04T14:28:46.471Z,101329.72
2023-06-04T14:31:13.637Z,101327.63
2023-06-04T14:33:41.026Z,101334.22
2023-06-04T14:36:08.232Z,101334.94
2023-06-04T14:38:35.513Z,101344.81
2023-06-04T14:41:02.730Z,101338.75
2023-06-04T14:43:30.086Z,101339.88
2023-06-04T14:45:57.312Z,101345.78
2023-06-04T14:48:24.749Z,101351.13
2023-06-04T14:50:54.668Z,101356.31
2023-06-04T14:53:21.957Z,101351.94
2023-06-04T14:55:49.136Z,101355.31
2023-06-04T14:58:16.845Z,101351.47
2023-06-04T15:00:43.995Z,101355.03
2023-06-04T15:03:12.081Z,101346.28
2023-06-04T15:05:39.459Z,101352.31
2023-06-04T15:08:06.857Z,101344.00
2023-06-04T15:10:35.182Z,101357.84
2023-06-04T15:13:02.421Z,101340.41
2023-06-04T15:15:29.562Z,101349.00
2023-06-04T15:17:56.741Z,101343.63
2023-06-04T15:20:26.371Z,101342.00
2023-06-04T15:22:53.593Z,101335.38
2023-06-04T15:25:21.125Z,101324.28
2023-06-04T15:27:48.651Z,101312.34
2023-06-04T15:30:15.741Z,101307.59
2023-06-04T15:32:43.208Z,101287.78
2023-06-04T15:35:11.172Z,101288.41
2023-06-04T15:37:38.626Z,101279.75
2023-06-04T15:40:08.702Z,101282.06
2023-06-04T15:42:36.057Z,101292.97
2023-06-04T15:45:03.475Z,101291.78
2023-06-04T15:47:30.739Z,101298.03
2023-06-04T15:49:57.984Z,101297.88
2023-06-04T15:52:27.429Z,101297.44
2023-06-04T15:54:54.677Z,101296.09
2023-06-04T15:57:21.895Z,101294.16
2023-06-04T15:59:49.148Z,101292.47
2023-06-04T16:02:16.332Z,101290.94
2023-06-04T16:04:43.591Z,101299.78
2023-06-04T16:07:10.681Z,101296.47
2023-06-04T16:09:38.477Z,101295.47
2023-06-04T16:12:06.522Z,101287.63
2023-06-04T16:14:33.723Z,101287.31
2023-06-04T16:17:01.016Z,101296.63
2023-06-04T16:19:28.181Z,101294.09
2023-06-04T16:21:57.273Z,101288.47
2023-06-04T16:24:24.376Z,101291.66
2023-06-04T16:26:51.445Z,101294.88
2023-06-04T16:29:18.714Z,101285.44
2023-06-04T16:31:46.077Z,101295.97
2023-06-04T16:34:13.227Z,101282.78
2023-06-04T16:36:40.355Z,101287.78
2023-06-04T16:39:07.391Z,101300.16
2023-06-04T16:41:34.823Z,101300.25
2023-06-04T16:44:01.949Z,101310.50
2023-06-04T16:46:28.999Z,101311.31
2023-06-04T16:48:56.094Z,101312.84
2023-06-04T16:52:07.596Z,101313.25
2023-06-04T16:54:34.899Z,101307.66
2023-06-04T16:57:02.677Z,101306.69
2023-06-04T16:59:31.565Z,101307.41
2023-06-04T17:01:59.722Z,101313.94
2023-06-04T17:04:26.947Z,101308.66
2023-06-04T17:06:54.085Z,101303.66
2023-06-04T17:09:21.181Z,101302.41
2023-06-04T17:11:48.317Z,101303.66
2023-06-04T17:14:15.518Z,101308.94
2023-06-04T17:16:42.691Z,101305.78
2023-06-04T17:19:10.004Z,101316.06
2023-06-04T17:21:37.174Z,101314.63
2023-06-04T17:24:04.600Z,101317.84
2023-06-04T17:26:31.997Z,101314.19
2023-06-04T17:28:59.848Z,101307.22
2023-06-04T17:31:27.422Z,101309.00
2023-06-04T17:33:54.557Z,101302.22
2023-06-04T17:36:22.048Z,101299.34
2023-06-04T17:38:50.354Z,101294.06
2023-06-04T17:41:17.737Z,101296.84
2023-06-04T17:43:44.955Z,101301.47
2023-06-04T17:46:12.645Z,101299.75
2023-06-04T17:48:40.273Z,101293.06
2023-06-04T17:51:07.424Z,101292.97
2023-06-04T17:53:34.583Z,101295.28
2023-06-04T17:56:01.877Z,101297.25
2023-06-04T17:58:30.484Z,101296.44
2023-06-04T18:00:57.961Z,101290.38
2023-06-04T18:03:25.195Z,101289.56
2023-06-04T18:05:52.329Z,101283.16
2023-06-04T18:08:19.689Z,101279.22
2023-06-04T18:10:46.984Z,101255.41
2023-06-04T18:13:14.270Z,101254.16
2023-06-04T18:15:41.394Z,101229.81
2023-06-04T18:18:08.624Z,101245.22
2023-06-04T18:20:36.435Z,101249.38
2023-06-04T18:23:04.306Z,101254.03
2023-06-04T18:25:31.351Z,101256.34
2023-06-04T18:27:58.966Z,101253.13
2023-06-04T18:30:26.169Z,101247.94
2023-06-04T18:32:55.108Z,101246.81
2023-06-04T18:35:22.513Z,101247.13
2023-06-04T18:37:49.930Z,101240.03
2023-06-04T18:40:18.401Z,101243.16
2023-06-04T18:42:47.160Z,101240.03
2023-06-04T18:45:15.737Z,101237.25
2023-06-04T18:47:44.881Z,101228.50
2023-06-04T18:50:13.626Z,101245.09
2023-06-04T18:52:41.615Z,101244.66
2023-06-04T18:55:11.255Z,101263.19
2023-06-04T18:57:40.257Z,101264.41
2023-06-04T19:00:09.816Z,101269.50
2023-06-04T19:02:39.458Z,101263.28
2023-06-04T19:05:11.237Z,101273.16
2023-06-04T19:07:41.980Z,101272.69
2023-06-04T19:10:14.002Z,101285.63
2023-06-04T19:12:43.842Z,101291.59
2023-06-04T19:15:12.410Z,101295.97
2023-06-04T19:17:40.330Z,101306.69
2023-06-04T19:20:08.852Z,101322.00
2023-06-04T19:22:38.763Z,101320.03
2023-06-04T19:25:07.310Z,101312.44
2023-06-04T19:27:36.383Z,101321.09
2023-06-04T19:30:05.619Z,101327.75
2023-06-04T19:32:34.396Z,101334.06
2023-06-04T19:35:03.484Z,101336.72
2023-06-04T19:37:31.975Z,101341.81
2023-06-04T19:40:02.677Z,101336.19
2023-06-04T19:42:32.075Z,101335.84
2023-06-04T19:45:00.911Z,101328.25
2023-06-04T19:47:28.890Z,101319.50
2023-06-04T19:49:57.109Z,101327.06
2023-06-04T19:52:26.197Z,101319.84
2023-06-04T19:54:54.713Z,101329.72
2023-06-04T19:57:23.099Z,101327.66
2023-06-04T19:59:51.795Z,101322.50
2023-06-04T20:02:20.301Z,101320.44
2023-06-04T20:04:53.222Z,101306.84
2023-06-04T20:07:22.018Z,101307.56
2023-06-04T20:09:50.233Z,101302.84
2023-06-04T20:12:19.565Z,101299.59
2023-06-04T20:14:48.831Z,101307.56
2023-06-04T20:17:17.419Z,101303.16
2023-06-04T20:19:46.710Z,101317.44
2023-06-04T20:22:14.538Z,101309.84
2023-06-04T20:24:44.770Z,101310.19
2023-06-04T20:27:14.254Z,101300.19
2023-06-04T20:29:42.050Z,101315.16
2023-06-04T20:32:10.434Z,101322.75
2023-06-04T20:34:39.268Z,101327.09
2023-06-04T20:37:08.337Z,101337.00
2023-06-04T20:39:40.722Z,101359.19
2023-06-04T20:42:08.782Z,101362.06
2023-06-04T20:44:36.785Z,101363.34
2023-06-04T20:47:04.802Z,101340.94
2023-06-04T20:49:33.592Z,101332.28
2023-06-04T20:52:02.438Z,101344.50
2023-06-04T20:54:31.972Z,101360.69
2023-06-04T20:57:00.811Z,101369.34
2023-06-04T20:59:29.564Z,101365.78
2023-06-04T21:01:57.508Z,101366.69
2023-06-04T21:04:25.896Z,101369.09
2023-06-04T21:06:53.834Z,101373.13
2023-06-04T21:09:21.777Z,101364.84
2023-06-04T21:11:49.024Z,101368.41
2023-06-04T21:14:16.323Z,101362.88
2023-06-04T21:16:43.689Z,101357.34
2023-06-04T21:19:11.420Z,101363.56
2023-06-04T21:21:41.621Z,101363.47
2023-06-04T21:24:08.880Z,101357.03
2023-06-04T21:26:36.061Z,101353.78
2023-06-04T21:29:03.269Z,101358.06
2023-06-04T21:31:30.325Z,101355.19
2023-06-04T21:33:57.490Z,101355.97
2023-06-04T21:36:24.710Z,101362.19
2023-06-04T21:38:51.942Z,101355.63
2023-06-04T21:41:19.443Z,101353.56
2023-06-04T21:43:46.698Z,101355.41
2023-06-04T21:46:14.711Z,101360.81
2023-06-04T21:48:45.193Z,101349.78
2023-06-04T21:51:12.564Z,101338.63
2023-06-04T21:53:39.704Z,101332.84
2023-06-04T21:56:06.859Z,101327.69
2023-06-04T21:58:33.983Z,101324.56
2023-06-04T22:01:01.202Z,101331.03
2023-06-04T22:03:29.043Z,101328.72
2023-06-04T22:05:56.466Z,101330.34
2023-06-04T22:08:23.508Z,101333.31
2023-06-04T22:10:50.724Z,101331.72
2023-06-04T22:13:17.798Z,101329.75
2023-06-04T22:15:45.081Z,101324.94
2023-06-04T22:18:12.263Z,101326.44
2023-06-04T22:20:39.557Z,101324.47
2023-06-04T22:23:06.633Z,101320.47
2023-06-04T22:25:33.873Z,101323.22
2023-06-04T22:28:01.206Z,101321.97
2023-06-04T22:30:28.456Z,101317.25
2023-06-04T22:32:55.788Z,101310.91
2023-06-04T22:35:23.781Z,101313.31
2023-06-04T22:37:51.003Z,101309.44
2023-06-04T22:40:18.877Z,101309.88
2023-06-04T22:42:45.956Z,101315.84
2023-06-04T22:45:13.173Z,101315.06
2023-06-04T22:47:40.309Z,101316.28
2023-06-04T22:50:09.311Z,101313.53
2023-06-04T22:52:41.249Z,101317.91
2023-06-04T22:55:12.561Z,101318.72
2023-06-04T22:57:39.870Z,101309.16
2023-06-04T23:00:08.510Z,101317.13
2023-06-04T23:02:35.850Z,101312.72
2023-06-04T23:05:03.650Z,101309.97
2023-06-04T23:07:30.790Z,101298.13
2023-06-04T23:09:57.966Z,101305.38
2023-06-04T23:12:25.030Z,101302.25
2023-06-04T23:14:52.289Z,101300.78
2023-06-04T23:17:19.941Z,101296.75
2023-06-04T23:19:47.088Z,101301.09
2023-06-04T23:22:14.251Z,101294.34
2023-06-04T23:24:41.482Z,101292.72
2023-06-04T23:27:08.533Z,101289.06
2023-06-04T23:29:35.653Z,101288.59
2023-06-04T23:32:02.892Z,101290.22
2023-06-04T23:34:29.986Z,101286.19
2023-06-04T23:36:57.176Z,101294.00
2023-06-04T23:39:24.368Z,101288.94
2023-06-04T23:41:51.611Z,101291.22
2023-06-04T23:44:18.739Z,101289.25
2023-06-04T23:46:46.355Z,101289.16
2023-06-04T23:49:13.421Z,101277.53
2023-06-04T23:51:40.562Z,101277.53
2023-06-04T23:54:07.680Z,101284.44
2023-06-04T23:56:34.883Z,101278.59
2023-06-04T23:59:02.567Z,101270.31
